sensor_id;sensor_type;location;lat;lon;timestamp;P1;durP1;ratioP1;P2;durP2;ratioP2
67737;SDS011;54534;43.612;1.572;2023-04-03T00:00:49;2.70;;;2.40;;
67737;SDS011;54534;43.612;1.572;2023-04-03T00:03:15;4.10;;;2.83;;
67737;SDS011;54534;43.612;1.572;2023-04-03T00:05:41;3.30;;;2.27;;
67737;SDS011;54534;43.612;1.572;2023-04-03T00:08:07;3.20;;;2.50;;
67737;SDS011;54534;43.612;1.572;2023-04-03T00:10:34;3.43;;;2.47;;
67737;SDS011;54534;43.612;1.572;2023-04-03T00:13:00;2.53;;;2.23;;
67737;SDS011;54534;43.612;1.572;2023-04-03T00:15:26;4.37;;;2.43;;
67737;SDS011;54534;43.612;1.572;2023-04-03T00:17:52;5.70;;;2.90;;
67737;SDS011;54534;43.612;1.572;2023-04-03T00:20:17;3.07;;;2.40;;
67737;SDS011;54534;43.612;1.572;2023-04-03T00:22:42;2.60;;;2.20;;
67737;SDS011;54534;43.612;1.572;2023-04-03T00:25:08;4.00;;;2.23;;
67737;SDS011;54534;43.612;1.572;2023-04-03T00:27:35;3.87;;;2.30;;
67737;SDS011;54534;43.612;1.572;2023-04-03T00:30:02;3.07;;;2.30;;
67737;SDS011;54534;43.612;1.572;2023-04-03T00:32:28;2.80;;;2.27;;
67737;SDS011;54534;43.612;1.572;2023-04-03T00:34:54;3.70;;;2.00;;
67737;SDS011;54534;43.612;1.572;2023-04-03T00:37:19;2.97;;;2.00;;
67737;SDS011;54534;43.612;1.572;2023-04-03T00:39:45;3.53;;;1.70;;
67737;SDS011;54534;43.612;1.572;2023-04-03T00:42:10;2.37;;;2.00;;
67737;SDS011;54534;43.612;1.572;2023-04-03T00:47:02;3.17;;;1.97;;
67737;SDS011;54534;43.612;1.572;2023-04-03T00:49:30;2.03;;;1.83;;
67737;SDS011;54534;43.612;1.572;2023-04-03T00:51:56;4.83;;;1.90;;
67737;SDS011;54534;43.612;1.572;2023-04-03T00:54:23;3.17;;;2.00;;
67737;SDS011;54534;43.612;1.572;2023-04-03T00:56:51;3.00;;;2.10;;
67737;SDS011;54534;43.612;1.572;2023-04-03T00:59:30;3.03;;;2.10;;
67737;SDS011;54534;43.612;1.572;2023-04-03T01:01:59;1.97;;;1.67;;
67737;SDS011;54534;43.612;1.572;2023-04-03T01:04:35;5.60;;;1.90;;
67737;SDS011;54534;43.612;1.572;2023-04-03T01:07:04;2.97;;;1.70;;
67737;SDS011;54534;43.612;1.572;2023-04-03T01:09:36;2.20;;;2.00;;
67737;SDS011;54534;43.612;1.572;2023-04-03T01:12:20;3.03;;;1.80;;
67737;SDS011;54534;43.612;1.572;2023-04-03T01:14:51;3.10;;;1.90;;
67737;SDS011;54534;43.612;1.572;2023-04-03T01:17:35;2.67;;;1.60;;
67737;SDS011;54534;43.612;1.572;2023-04-03T01:22:38;3.87;;;1.90;;
67737;SDS011;54534;43.612;1.572;2023-04-03T01:25:10;2.47;;;1.60;;
67737;SDS011;54534;43.612;1.572;2023-04-03T01:27:36;1.87;;;1.50;;
67737;SDS011;54534;43.612;1.572;2023-04-03T01:30:01;1.50;;;1.40;;
67737;SDS011;54534;43.612;1.572;2023-04-03T01:32:27;2.10;;;1.40;;
67737;SDS011;54534;43.612;1.572;2023-04-03T01:34:52;4.13;;;2.73;;
67737;SDS011;54534;43.612;1.572;2023-04-03T01:37:18;2.27;;;1.50;;
67737;SDS011;54534;43.612;1.572;2023-04-03T01:39:43;1.97;;;1.60;;
67737;SDS011;54534;43.612;1.572;2023-04-03T01:42:09;2.03;;;1.60;;
67737;SDS011;54534;43.612;1.572;2023-04-03T01:44:36;2.10;;;1.30;;
67737;SDS011;54534;43.612;1.572;2023-04-03T01:47:01;2.40;;;1.93;;
67737;SDS011;54534;43.612;1.572;2023-04-03T01:49:30;2.27;;;1.53;;
67737;SDS011;54534;43.612;1.572;2023-04-03T01:51:55;3.37;;;1.40;;
67737;SDS011;54534;43.612;1.572;2023-04-03T01:54:21;3.13;;;1.57;;
67737;SDS011;54534;43.612;1.572;2023-04-03T01:56:46;1.83;;;1.50;;
67737;SDS011;54534;43.612;1.572;2023-04-03T01:59:11;2.60;;;1.47;;
67737;SDS011;54534;43.612;1.572;2023-04-03T02:01:37;2.67;;;1.60;;
67737;SDS011;54534;43.612;1.572;2023-04-03T02:04:02;2.00;;;1.37;;
67737;SDS011;54534;43.612;1.572;2023-04-03T02:06:27;1.47;;;1.30;;
67737;SDS011;54534;43.612;1.572;2023-04-03T02:08:53;1.87;;;1.30;;
67737;SDS011;54534;43.612;1.572;2023-04-03T02:11:18;5.10;;;1.70;;
67737;SDS011;54534;43.612;1.572;2023-04-03T02:13:45;2.03;;;1.20;;
67737;SDS011;54534;43.612;1.572;2023-04-03T02:16:10;1.53;;;1.43;;
67737;SDS011;54534;43.612;1.572;2023-04-03T02:18:37;1.90;;;1.40;;
67737;SDS011;54534;43.612;1.572;2023-04-03T02:21:03;1.20;;;1.10;;
67737;SDS011;54534;43.612;1.572;2023-04-03T02:23:28;6.43;;;1.37;;
67737;SDS011;54534;43.612;1.572;2023-04-03T02:26:02;1.27;;;1.10;;
67737;SDS011;54534;43.612;1.572;2023-04-03T02:28:31;1.57;;;1.27;;
67737;SDS011;54534;43.612;1.572;2023-04-03T02:30:57;1.60;;;1.20;;
67737;SDS011;54534;43.612;1.572;2023-04-03T02:33:22;1.50;;;1.23;;
67737;SDS011;54534;43.612;1.572;2023-04-03T02:35:51;2.17;;;1.40;;
67737;SDS011;54534;43.612;1.572;2023-04-03T02:38:18;1.43;;;1.20;;
67737;SDS011;54534;43.612;1.572;2023-04-03T02:40:43;2.57;;;1.40;;
67737;SDS011;54534;43.612;1.572;2023-04-03T02:43:09;1.67;;;1.50;;
67737;SDS011;54534;43.612;1.572;2023-04-03T02:45:35;2.40;;;1.30;;
67737;SDS011;54534;43.612;1.572;2023-04-03T02:48:00;1.40;;;1.30;;
67737;SDS011;54534;43.612;1.572;2023-04-03T02:50:26;2.30;;;1.60;;
67737;SDS011;54534;43.612;1.572;2023-04-03T02:52:51;1.30;;;1.20;;
67737;SDS011;54534;43.612;1.572;2023-04-03T02:55:17;1.10;;;1.00;;
67737;SDS011;54534;43.612;1.572;2023-04-03T02:57:42;3.93;;;1.40;;
67737;SDS011;54534;43.612;1.572;2023-04-03T03:00:08;2.23;;;1.50;;
67737;SDS011;54534;43.612;1.572;2023-04-03T03:02:34;1.90;;;1.20;;
67737;SDS011;54534;43.612;1.572;2023-04-03T03:05:00;1.30;;;1.20;;
67737;SDS011;54534;43.612;1.572;2023-04-03T03:07:25;1.17;;;1.07;;
67737;SDS011;54534;43.612;1.572;2023-04-03T03:09:51;1.90;;;1.00;;
67737;SDS011;54534;43.612;1.572;2023-04-03T03:12:16;1.50;;;1.03;;
67737;SDS011;54534;43.612;1.572;2023-04-03T03:14:46;1.70;;;1.20;;
67737;SDS011;54534;43.612;1.572;2023-04-03T03:17:12;1.97;;;1.23;;
67737;SDS011;54534;43.612;1.572;2023-04-03T03:19:38;1.10;;;1.00;;
67737;SDS011;54534;43.612;1.572;2023-04-03T03:22:03;2.27;;;1.10;;
67737;SDS011;54534;43.612;1.572;2023-04-03T03:24:29;1.73;;;1.10;;
67737;SDS011;54534;43.612;1.572;2023-04-03T03:26:54;1.20;;;1.10;;
67737;SDS011;54534;43.612;1.572;2023-04-03T03:29:20;2.80;;;1.40;;
67737;SDS011;54534;43.612;1.572;2023-04-03T03:31:45;1.63;;;1.07;;
67737;SDS011;54534;43.612;1.572;2023-04-03T03:34:11;1.20;;;1.10;;
67737;SDS011;54534;43.612;1.572;2023-04-03T03:36:36;2.77;;;1.43;;
67737;SDS011;54534;43.612;1.572;2023-04-03T03:39:02;1.20;;;1.10;;
67737;SDS011;54534;43.612;1.572;2023-04-03T03:41:28;1.33;;;1.20;;
67737;SDS011;54534;43.612;1.572;2023-04-03T03:43:53;1.67;;;1.10;;
67737;SDS011;54534;43.612;1.572;2023-04-03T03:46:18;1.63;;;1.00;;
67737;SDS011;54534;43.612;1.572;2023-04-03T03:48:44;2.67;;;1.20;;
67737;SDS011;54534;43.612;1.572;2023-04-03T03:51:09;2.00;;;1.07;;
67737;SDS011;54534;43.612;1.572;2023-04-03T03:53:35;1.43;;;1.03;;
67737;SDS011;54534;43.612;1.572;2023-04-03T03:56:01;2.27;;;1.10;;
67737;SDS011;54534;43.612;1.572;2023-04-03T03:58:26;0.97;;;0.90;;
67737;SDS011;54534;43.612;1.572;2023-04-03T04:00:51;1.20;;;0.90;;
67737;SDS011;54534;43.612;1.572;2023-04-03T04:03:17;1.33;;;1.00;;
67737;SDS011;54534;43.612;1.572;2023-04-03T04:05:42;1.70;;;1.00;;
67737;SDS011;54534;43.612;1.572;2023-04-03T04:08:08;2.10;;;1.53;;
67737;SDS011;54534;43.612;1.572;2023-04-03T04:10:34;1.23;;;1.07;;
67737;SDS011;54534;43.612;1.572;2023-04-03T04:13:00;1.47;;;0.83;;
67737;SDS011;54534;43.612;1.572;2023-04-03T04:15:25;1.17;;;0.90;;
67737;SDS011;54534;43.612;1.572;2023-04-03T04:17:51;1.00;;;0.90;;
67737;SDS011;54534;43.612;1.572;2023-04-03T04:20:21;1.10;;;1.00;;
67737;SDS011;54534;43.612;1.572;2023-04-03T04:22:46;2.33;;;1.30;;
67737;SDS011;54534;43.612;1.572;2023-04-03T04:25:11;1.67;;;1.00;;
67737;SDS011;54534;43.612;1.572;2023-04-03T04:27:37;1.33;;;0.93;;
67737;SDS011;54534;43.612;1.572;2023-04-03T04:30:03;1.03;;;1.00;;
67737;SDS011;54534;43.612;1.572;2023-04-03T04:32:29;1.00;;;0.90;;
67737;SDS011;54534;43.612;1.572;2023-04-03T04:34:55;1.13;;;0.97;;
67737;SDS011;54534;43.612;1.572;2023-04-03T04:37:20;2.00;;;0.90;;
67737;SDS011;54534;43.612;1.572;2023-04-03T04:39:45;1.00;;;0.90;;
67737;SDS011;54534;43.612;1.572;2023-04-03T04:42:11;0.63;;;0.63;;
67737;SDS011;54534;43.612;1.572;2023-04-03T04:44:38;0.90;;;0.90;;
67737;SDS011;54534;43.612;1.572;2023-04-03T04:47:04;0.83;;;0.73;;
67737;SDS011;54534;43.612;1.572;2023-04-03T04:49:30;0.93;;;0.80;;
67737;SDS011;54534;43.612;1.572;2023-04-03T04:51:55;0.90;;;0.80;;
67737;SDS011;54534;43.612;1.572;2023-04-03T04:54:21;1.23;;;0.90;;
67737;SDS011;54534;43.612;1.572;2023-04-03T04:56:46;0.70;;;0.70;;
67737;SDS011;54534;43.612;1.572;2023-04-03T04:59:12;1.07;;;0.97;;
67737;SDS011;54534;43.612;1.572;2023-04-03T05:01:37;1.57;;;0.87;;
67737;SDS011;54534;43.612;1.572;2023-04-03T05:04:03;2.90;;;1.07;;
67737;SDS011;54534;43.612;1.572;2023-04-03T05:06:29;16.50;;;1.20;;
67737;SDS011;54534;43.612;1.572;2023-04-03T05:08:56;3.80;;;1.07;;
67737;SDS011;54534;43.612;1.572;2023-04-03T05:11:23;9.20;;;1.63;;
67737;SDS011;54534;43.612;1.572;2023-04-03T05:13:49;1.33;;;1.00;;
67737;SDS011;54534;43.612;1.572;2023-04-03T05:16:14;7.30;;;2.40;;
67737;SDS011;54534;43.612;1.572;2023-04-03T05:18:40;4.67;;;1.37;;
67737;SDS011;54534;43.612;1.572;2023-04-03T05:21:05;5.50;;;1.23;;
67737;SDS011;54534;43.612;1.572;2023-04-03T05:23:31;3.33;;;0.90;;
67737;SDS011;54534;43.612;1.572;2023-04-03T05:25:56;1.90;;;0.97;;
67737;SDS011;54534;43.612;1.572;2023-04-03T05:28:22;2.63;;;1.00;;
67737;SDS011;54534;43.612;1.572;2023-04-03T05:30:54;3.77;;;0.90;;
67737;SDS011;54534;43.612;1.572;2023-04-03T05:33:20;5.63;;;1.00;;
67737;SDS011;54534;43.612;1.572;2023-04-03T05:35:46;1.30;;;0.90;;
67737;SDS011;54534;43.612;1.572;2023-04-03T05:38:11;2.63;;;0.90;;
67737;SDS011;54534;43.612;1.572;2023-04-03T05:40:37;3.40;;;0.93;;
67737;SDS011;54534;43.612;1.572;2023-04-03T05:43:02;4.17;;;1.13;;
67737;SDS011;54534;43.612;1.572;2023-04-03T05:45:28;7.27;;;1.07;;
67737;SDS011;54534;43.612;1.572;2023-04-03T05:47:53;8.43;;;1.40;;
67737;SDS011;54534;43.612;1.572;2023-04-03T05:50:19;14.30;;;1.20;;
67737;SDS011;54534;43.612;1.572;2023-04-03T05:52:45;8.83;;;1.20;;
67737;SDS011;54534;43.612;1.572;2023-04-03T05:55:14;6.03;;;1.45;;
67737;SDS011;54534;43.612;1.572;2023-04-03T05:57:39;5.43;;;0.90;;
67737;SDS011;54534;43.612;1.572;2023-04-03T06:00:07;1.57;;;1.13;;
67737;SDS011;54534;43.612;1.572;2023-04-03T06:02:34;5.55;;;1.20;;
67737;SDS011;54534;43.612;1.572;2023-04-03T06:05:00;2.47;;;0.87;;
67737;SDS011;54534;43.612;1.572;2023-04-03T06:07:26;2.40;;;1.10;;
67737;SDS011;54534;43.612;1.572;2023-04-03T06:09:53;6.50;;;1.10;;
67737;SDS011;54534;43.612;1.572;2023-04-03T06:12:20;5.87;;;1.17;;
67737;SDS011;54534;43.612;1.572;2023-04-03T06:14:47;5.23;;;1.10;;
67737;SDS011;54534;43.612;1.572;2023-04-03T06:17:13;2.57;;;1.20;;
67737;SDS011;54534;43.612;1.572;2023-04-03T06:19:39;8.07;;;1.27;;
67737;SDS011;54534;43.612;1.572;2023-04-03T06:22:04;7.40;;;1.10;;
67737;SDS011;54534;43.612;1.572;2023-04-03T06:24:30;3.77;;;1.50;;
67737;SDS011;54534;43.612;1.572;2023-04-03T06:26:56;4.70;;;1.03;;
67737;SDS011;54534;43.612;1.572;2023-04-03T06:29:22;3.43;;;1.13;;
67737;SDS011;54534;43.612;1.572;2023-04-03T06:31:48;8.60;;;1.87;;
67737;SDS011;54534;43.612;1.572;2023-04-03T06:34:14;3.47;;;0.93;;
67737;SDS011;54534;43.612;1.572;2023-04-03T06:36:40;3.63;;;1.10;;
67737;SDS011;54534;43.612;1.572;2023-04-03T06:39:07;7.60;;;1.07;;
67737;SDS011;54534;43.612;1.572;2023-04-03T06:44:02;2.47;;;1.20;;
67737;SDS011;54534;43.612;1.572;2023-04-03T06:46:28;6.00;;;1.47;;
67737;SDS011;54534;43.612;1.572;2023-04-03T06:48:53;6.73;;;1.20;;
67737;SDS011;54534;43.612;1.572;2023-04-03T06:51:20;1.70;;;1.17;;
67737;SDS011;54534;43.612;1.572;2023-04-03T06:53:51;1.53;;;0.97;;
67737;SDS011;54534;43.612;1.572;2023-04-03T06:56:18;1.10;;;1.00;;
67737;SDS011;54534;43.612;1.572;2023-04-03T06:58:44;2.63;;;1.20;;
67737;SDS011;54534;43.612;1.572;2023-04-03T07:01:10;3.13;;;1.00;;
67737;SDS011;54534;43.612;1.572;2023-04-03T07:03:37;2.20;;;1.03;;
67737;SDS011;54534;43.612;1.572;2023-04-03T07:06:04;3.00;;;1.03;;
67737;SDS011;54534;43.612;1.572;2023-04-03T07:08:30;5.27;;;1.03;;
67737;SDS011;54534;43.612;1.572;2023-04-03T07:10:56;2.60;;;0.90;;
67737;SDS011;54534;43.612;1.572;2023-04-03T07:13:21;1.47;;;1.00;;
67737;SDS011;54534;43.612;1.572;2023-04-03T07:15:47;2.23;;;1.30;;
67737;SDS011;54534;43.612;1.572;2023-04-03T07:18:13;6.13;;;0.83;;
67737;SDS011;54534;43.612;1.572;2023-04-03T07:20:38;1.10;;;0.90;;
67737;SDS011;54534;43.612;1.572;2023-04-03T07:23:04;5.20;;;0.80;;
67737;SDS011;54534;43.612;1.572;2023-04-03T07:25:30;1.70;;;1.10;;
67737;SDS011;54534;43.612;1.572;2023-04-03T07:27:56;1.00;;;0.90;;
67737;SDS011;54534;43.612;1.572;2023-04-03T07:30:22;1.17;;;0.93;;
67737;SDS011;54534;43.612;1.572;2023-04-03T07:32:48;1.13;;;1.00;;
67737;SDS011;54534;43.612;1.572;2023-04-03T07:35:13;2.57;;;1.20;;
67737;SDS011;54534;43.612;1.572;2023-04-03T07:37:40;2.43;;;1.10;;
67737;SDS011;54534;43.612;1.572;2023-04-03T07:40:06;1.07;;;0.70;;
67737;SDS011;54534;43.612;1.572;2023-04-03T07:42:32;1.97;;;1.10;;
67737;SDS011;54534;43.612;1.572;2023-04-03T07:44:57;1.90;;;1.23;;
67737;SDS011;54534;43.612;1.572;2023-04-03T07:47:23;2.87;;;1.03;;
67737;SDS011;54534;43.612;1.572;2023-04-03T07:49:48;1.00;;;0.90;;
67737;SDS011;54534;43.612;1.572;2023-04-03T07:52:14;3.03;;;0.80;;
67737;SDS011;54534;43.612;1.572;2023-04-03T07:54:40;1.20;;;1.10;;
67737;SDS011;54534;43.612;1.572;2023-04-03T07:57:06;1.90;;;0.97;;
67737;SDS011;54534;43.612;1.572;2023-04-03T07:59:31;1.87;;;1.07;;
67737;SDS011;54534;43.612;1.572;2023-04-03T08:01:57;1.67;;;1.20;;
67737;SDS011;54534;43.612;1.572;2023-04-03T08:04:22;1.37;;;1.10;;
67737;SDS011;54534;43.612;1.572;2023-04-03T08:06:48;1.57;;;1.10;;
67737;SDS011;54534;43.612;1.572;2023-04-03T08:09:14;1.00;;;0.90;;
67737;SDS011;54534;43.612;1.572;2023-04-03T08:11:40;2.03;;;0.93;;
67737;SDS011;54534;43.612;1.572;2023-04-03T08:14:06;0.93;;;0.93;;
67737;SDS011;54534;43.612;1.572;2023-04-03T08:16:32;1.47;;;1.20;;
67737;SDS011;54534;43.612;1.572;2023-04-03T08:18:57;1.97;;;1.47;;
67737;SDS011;54534;43.612;1.572;2023-04-03T08:21:23;3.47;;;0.93;;
67737;SDS011;54534;43.612;1.572;2023-04-03T08:23:49;1.80;;;0.73;;
67737;SDS011;54534;43.612;1.572;2023-04-03T08:26:18;1.02;;;0.98;;
67737;SDS011;54534;43.612;1.572;2023-04-03T08:28:46;1.10;;;1.00;;
67737;SDS011;54534;43.612;1.572;2023-04-03T08:31:14;1.20;;;1.00;;
67737;SDS011;54534;43.612;1.572;2023-04-03T08:33:42;3.42;;;1.00;;
67737;SDS011;54534;43.612;1.572;2023-04-03T08:36:14;2.50;;;1.10;;
67737;SDS011;54534;43.612;1.572;2023-04-03T08:38:46;0.90;;;0.90;;
67737;SDS011;54534;43.612;1.572;2023-04-03T08:41:29;1.53;;;1.20;;
67737;SDS011;54534;43.612;1.572;2023-04-03T08:49:41;0.90;;;0.90;;
67737;SDS011;54534;43.612;1.572;2023-04-03T08:52:25;1.40;;;1.27;;
67737;SDS011;54534;43.612;1.572;2023-04-03T08:58:06;1.20;;;1.10;;
67737;SDS011;54534;43.612;1.572;2023-04-03T09:00:47;1.20;;;0.90;;
67737;SDS011;54534;43.612;1.572;2023-04-03T09:03:17;1.48;;;1.10;;
67737;SDS011;54534;43.612;1.572;2023-04-03T09:22:41;1.77;;;1.20;;
67737;SDS011;54534;43.612;1.572;2023-04-03T09:27:42;1.73;;;1.20;;
67737;SDS011;54534;43.612;1.572;2023-04-03T09:30:12;1.23;;;1.13;;
67737;SDS011;54534;43.612;1.572;2023-04-03T09:32:40;1.10;;;1.00;;
67737;SDS011;54534;43.612;1.572;2023-04-03T09:37:52;1.27;;;1.17;;
67737;SDS011;54534;43.612;1.572;2023-04-03T09:42:50;0.97;;;0.90;;
67737;SDS011;54534;43.612;1.572;2023-04-03T09:51:01;0.83;;;0.83;;
67737;SDS011;54534;43.612;1.572;2023-04-03T09:53:40;1.87;;;0.90;;
67737;SDS011;54534;43.612;1.572;2023-04-03T09:58:43;2.13;;;1.07;;
67737;SDS011;54534;43.612;1.572;2023-04-03T10:06:39;1.57;;;1.00;;
67737;SDS011;54534;43.612;1.572;2023-04-03T10:09:16;1.70;;;0.93;;
67737;SDS011;54534;43.612;1.572;2023-04-03T10:14:24;1.83;;;1.10;;
67737;SDS011;54534;43.612;1.572;2023-04-03T10:16:56;1.23;;;1.00;;
67737;SDS011;54534;43.612;1.572;2023-04-03T10:19:36;1.43;;;1.10;;
67737;SDS011;54534;43.612;1.572;2023-04-03T10:25:33;1.17;;;1.00;;
67737;SDS011;54534;43.612;1.572;2023-04-03T10:30:57;1.33;;;0.90;;
67737;SDS011;54534;43.612;1.572;2023-04-03T10:33:45;1.27;;;1.10;;
67737;SDS011;54534;43.612;1.572;2023-04-03T10:41:47;1.13;;;0.90;;
67737;SDS011;54534;43.612;1.572;2023-04-03T10:44:50;1.33;;;1.03;;
67737;SDS011;54534;43.612;1.572;2023-04-03T10:48:37;1.60;;;1.20;;
67737;SDS011;54534;43.612;1.572;2023-04-03T10:58:58;1.73;;;1.23;;
67737;SDS011;54534;43.612;1.572;2023-04-03T11:01:35;1.30;;;1.20;;
67737;SDS011;54534;43.612;1.572;2023-04-03T11:04:06;2.10;;;1.10;;
67737;SDS011;54534;43.612;1.572;2023-04-03T11:06:36;1.87;;;1.40;;
67737;SDS011;54534;43.612;1.572;2023-04-03T11:09:22;2.77;;;1.60;;
67737;SDS011;54534;43.612;1.572;2023-04-03T11:11:53;1.43;;;1.33;;
67737;SDS011;54534;43.612;1.572;2023-04-03T11:14:31;1.97;;;1.17;;
67737;SDS011;54534;43.612;1.572;2023-04-03T11:22:35;1.93;;;1.10;;
67737;SDS011;54534;43.612;1.572;2023-04-03T11:27:42;1.40;;;1.10;;
67737;SDS011;54534;43.612;1.572;2023-04-03T11:30:46;1.20;;;1.10;;
67737;SDS011;54534;43.612;1.572;2023-04-03T11:33:32;1.83;;;1.00;;
67737;SDS011;54534;43.612;1.572;2023-04-03T11:36:18;1.67;;;1.10;;
67737;SDS011;54534;43.612;1.572;2023-04-03T11:38:48;1.30;;;1.20;;
67737;SDS011;54534;43.612;1.572;2023-04-03T11:41:17;1.05;;;0.90;;
67737;SDS011;54534;43.612;1.572;2023-04-03T11:43:55;1.43;;;1.10;;
67737;SDS011;54534;43.612;1.572;2023-04-03T12:05:54;1.27;;;1.17;;
67737;SDS011;54534;43.612;1.572;2023-04-03T12:08:30;1.60;;;0.90;;
67737;SDS011;54534;43.612;1.572;2023-04-03T12:16:25;1.33;;;1.03;;
67737;SDS011;54534;43.612;1.572;2023-04-03T12:21:22;0.90;;;0.90;;
67737;SDS011;54534;43.612;1.572;2023-04-03T12:37:40;1.40;;;0.97;;
67737;SDS011;54534;43.612;1.572;2023-04-03T12:40:19;1.00;;;1.00;;
67737;SDS011;54534;43.612;1.572;2023-04-03T12:45:40;1.10;;;1.00;;
67737;SDS011;54534;43.612;1.572;2023-04-03T12:48:14;1.03;;;0.93;;
67737;SDS011;54534;43.612;1.572;2023-04-03T12:50:41;1.10;;;1.00;;
67737;SDS011;54534;43.612;1.572;2023-04-03T12:53:14;0.98;;;0.93;;
67737;SDS011;54534;43.612;1.572;2023-04-03T12:55:43;1.60;;;1.50;;
67737;SDS011;54534;43.612;1.572;2023-04-03T13:00:42;1.23;;;1.10;;
67737;SDS011;54534;43.612;1.572;2023-04-03T13:03:19;0.93;;;0.90;;
67737;SDS011;54534;43.612;1.572;2023-04-03T13:05:49;1.30;;;1.00;;
67737;SDS011;54534;43.612;1.572;2023-04-03T13:08:15;1.10;;;0.93;;
67737;SDS011;54534;43.612;1.572;2023-04-03T13:10:54;1.80;;;1.00;;
67737;SDS011;54534;43.612;1.572;2023-04-03T13:13:26;1.00;;;0.90;;
67737;SDS011;54534;43.612;1.572;2023-04-03T13:15:52;1.50;;;0.87;;
67737;SDS011;54534;43.612;1.572;2023-04-03T13:18:22;1.20;;;1.10;;
67737;SDS011;54534;43.612;1.572;2023-04-03T13:20:52;1.40;;;0.83;;
67737;SDS011;54534;43.612;1.572;2023-04-03T13:23:22;2.03;;;1.27;;
67737;SDS011;54534;43.612;1.572;2023-04-03T13:25:48;1.73;;;1.13;;
67737;SDS011;54534;43.612;1.572;2023-04-03T13:28:16;1.43;;;1.27;;
67737;SDS011;54534;43.612;1.572;2023-04-03T13:31:46;1.07;;;0.97;;
67737;SDS011;54534;43.612;1.572;2023-04-03T13:36:36;1.20;;;1.00;;
67737;SDS011;54534;43.612;1.572;2023-04-03T13:41:36;1.13;;;0.97;;
67737;SDS011;54534;43.612;1.572;2023-04-03T13:46:54;1.03;;;0.90;;
67737;SDS011;54534;43.612;1.572;2023-04-03T13:51:52;1.33;;;0.83;;
67737;SDS011;54534;43.612;1.572;2023-04-03T13:54:22;1.83;;;1.00;;
67737;SDS011;54534;43.612;1.572;2023-04-03T13:56:52;1.33;;;1.10;;
67737;SDS011;54534;43.612;1.572;2023-04-03T13:59:33;1.20;;;1.00;;
67737;SDS011;54534;43.612;1.572;2023-04-03T14:04:30;0.90;;;0.90;;
67737;SDS011;54534;43.612;1.572;2023-04-03T14:06:55;0.87;;;0.87;;
67737;SDS011;54534;43.612;1.572;2023-04-03T14:09:22;1.13;;;0.80;;
67737;SDS011;54534;43.612;1.572;2023-04-03T14:11:48;1.10;;;0.90;;
67737;SDS011;54534;43.612;1.572;2023-04-03T14:14:19;1.52;;;1.33;;
67737;SDS011;54534;43.612;1.572;2023-04-03T14:16:49;1.08;;;1.00;;
67737;SDS011;54534;43.612;1.572;2023-04-03T14:19:28;2.73;;;0.83;;
67737;SDS011;54534;43.612;1.572;2023-04-03T14:21:56;1.10;;;0.83;;
67737;SDS011;54534;43.612;1.572;2023-04-03T14:24:22;1.50;;;1.13;;
67737;SDS011;54534;43.612;1.572;2023-04-03T14:26:48;1.20;;;1.00;;
67737;SDS011;54534;43.612;1.572;2023-04-03T14:29:15;0.97;;;0.90;;
67737;SDS011;54534;43.612;1.572;2023-04-03T14:31:42;1.50;;;1.07;;
67737;SDS011;54534;43.612;1.572;2023-04-03T14:34:09;1.63;;;1.13;;
67737;SDS011;54534;43.612;1.572;2023-04-03T14:36:36;1.23;;;0.80;;
67737;SDS011;54534;43.612;1.572;2023-04-03T14:39:03;0.80;;;0.80;;
67737;SDS011;54534;43.612;1.572;2023-04-03T14:41:29;0.80;;;0.80;;
67737;SDS011;54534;43.612;1.572;2023-04-03T14:43:55;1.37;;;1.00;;
67737;SDS011;54534;43.612;1.572;2023-04-03T14:46:25;1.07;;;1.00;;
67737;SDS011;54534;43.612;1.572;2023-04-03T14:48:56;1.73;;;1.00;;
67737;SDS011;54534;43.612;1.572;2023-04-03T14:51:22;1.23;;;1.10;;
67737;SDS011;54534;43.612;1.572;2023-04-03T14:53:48;0.90;;;0.90;;
67737;SDS011;54534;43.612;1.572;2023-04-03T14:56:16;1.17;;;0.70;;
67737;SDS011;54534;43.612;1.572;2023-04-03T14:58:43;1.00;;;0.80;;
67737;SDS011;54534;43.612;1.572;2023-04-03T15:01:10;1.27;;;0.90;;
67737;SDS011;54534;43.612;1.572;2023-04-03T15:03:37;1.00;;;0.90;;
67737;SDS011;54534;43.612;1.572;2023-04-03T15:06:02;1.73;;;0.90;;
67737;SDS011;54534;43.612;1.572;2023-04-03T15:08:28;1.93;;;1.10;;
67737;SDS011;54534;43.612;1.572;2023-04-03T15:10:56;1.47;;;0.97;;
67737;SDS011;54534;43.612;1.572;2023-04-03T15:13:23;3.20;;;1.87;;
67737;SDS011;54534;43.612;1.572;2023-04-03T15:15:50;1.50;;;0.90;;
67737;SDS011;54534;43.612;1.572;2023-04-03T15:18:18;1.50;;;1.03;;
67737;SDS011;54534;43.612;1.572;2023-04-03T15:20:45;1.67;;;1.00;;
67737;SDS011;54534;43.612;1.572;2023-04-03T15:23:12;0.97;;;0.77;;
67737;SDS011;54534;43.612;1.572;2023-04-03T15:25:40;1.07;;;0.80;;
67737;SDS011;54534;43.612;1.572;2023-04-03T15:28:08;1.03;;;0.90;;
67737;SDS011;54534;43.612;1.572;2023-04-03T15:30:37;1.27;;;0.80;;
67737;SDS011;54534;43.612;1.572;2023-04-03T15:33:05;1.07;;;0.93;;
67737;SDS011;54534;43.612;1.572;2023-04-03T15:35:30;0.80;;;0.80;;
67737;SDS011;54534;43.612;1.572;2023-04-03T15:37:56;0.90;;;0.90;;
67737;SDS011;54534;43.612;1.572;2023-04-03T15:40:21;0.60;;;0.57;;
67737;SDS011;54534;43.612;1.572;2023-04-03T15:42:47;1.50;;;1.10;;
67737;SDS011;54534;43.612;1.572;2023-04-03T15:45:12;0.83;;;0.60;;
67737;SDS011;54534;43.612;1.572;2023-04-03T15:47:37;0.97;;;0.87;;
67737;SDS011;54534;43.612;1.572;2023-04-03T15:50:03;1.43;;;1.10;;
67737;SDS011;54534;43.612;1.572;2023-04-03T15:52:31;1.37;;;0.97;;
67737;SDS011;54534;43.612;1.572;2023-04-03T15:54:57;0.90;;;0.70;;
67737;SDS011;54534;43.612;1.572;2023-04-03T15:57:22;2.00;;;1.00;;
67737;SDS011;54534;43.612;1.572;2023-04-03T15:59:50;1.10;;;0.70;;
67737;SDS011;54534;43.612;1.572;2023-04-03T16:02:16;1.23;;;1.07;;
67737;SDS011;54534;43.612;1.572;2023-04-03T16:04:41;1.23;;;0.90;;
67737;SDS011;54534;43.612;1.572;2023-04-03T16:07:07;1.50;;;0.77;;
67737;SDS011;54534;43.612;1.572;2023-04-03T16:09:32;0.90;;;0.90;;
67737;SDS011;54534;43.612;1.572;2023-04-03T16:11:59;1.23;;;0.97;;
67737;SDS011;54534;43.612;1.572;2023-04-03T16:14:25;0.90;;;0.90;;
67737;SDS011;54534;43.612;1.572;2023-04-03T16:16:52;1.27;;;1.00;;
67737;SDS011;54534;43.612;1.572;2023-04-03T16:19:18;1.43;;;0.87;;
67737;SDS011;54534;43.612;1.572;2023-04-03T16:21:45;1.73;;;0.80;;
67737;SDS011;54534;43.612;1.572;2023-04-03T16:24:11;2.10;;;1.20;;
67737;SDS011;54534;43.612;1.572;2023-04-03T16:26:37;1.33;;;0.90;;
67737;SDS011;54534;43.612;1.572;2023-04-03T16:29:02;1.13;;;1.07;;
67737;SDS011;54534;43.612;1.572;2023-04-03T16:31:28;1.50;;;1.00;;
67737;SDS011;54534;43.612;1.572;2023-04-03T16:33:54;1.10;;;0.80;;
67737;SDS011;54534;43.612;1.572;2023-04-03T16:36:20;1.00;;;0.80;;
67737;SDS011;54534;43.612;1.572;2023-04-03T16:38:46;0.90;;;0.90;;
67737;SDS011;54534;43.612;1.572;2023-04-03T16:41:11;1.50;;;0.90;;
67737;SDS011;54534;43.612;1.572;2023-04-03T16:43:37;1.13;;;0.87;;
67737;SDS011;54534;43.612;1.572;2023-04-03T16:46:02;0.90;;;0.90;;
67737;SDS011;54534;43.612;1.572;2023-04-03T16:48:28;1.13;;;1.00;;
67737;SDS011;54534;43.612;1.572;2023-04-03T16:50:54;0.80;;;0.80;;
67737;SDS011;54534;43.612;1.572;2023-04-03T16:53:20;1.37;;;0.90;;
67737;SDS011;54534;43.612;1.572;2023-04-03T16:55:46;0.87;;;0.80;;
67737;SDS011;54534;43.612;1.572;2023-04-03T16:58:12;1.13;;;0.70;;
67737;SDS011;54534;43.612;1.572;2023-04-03T17:00:37;1.37;;;0.90;;
67737;SDS011;54534;43.612;1.572;2023-04-03T17:03:03;1.37;;;0.90;;
67737;SDS011;54534;43.612;1.572;2023-04-03T17:05:29;1.23;;;1.00;;
67737;SDS011;54534;43.612;1.572;2023-04-03T17:07:54;2.70;;;0.87;;
67737;SDS011;54534;43.612;1.572;2023-04-03T17:10:19;1.70;;;0.80;;
67737;SDS011;54534;43.612;1.572;2023-04-03T17:12:45;0.87;;;0.80;;
67737;SDS011;54534;43.612;1.572;2023-04-03T17:15:10;0.77;;;0.77;;
67737;SDS011;54534;43.612;1.572;2023-04-03T17:17:36;22.20;;;3.13;;